Decoded Metar for K2G4 (GARRETT CO in MD, USA) (IATA:2G4) | Meteo·Mobile Aviation Weather
aviador You're here:

K2G4 Decoded Metar

GARRETT CO in MD, USA
Report Time2019-10-19 22:25:00
UTC Time2019-10-19 22:41:07
Flight Rules vfr VFR
Wind140° at 07 kt
Visibility9999 m
Phenomena:N/A
Clouds:N/A
Expected CloudBase > 2,000 ft AGL from Temp-Dew spread
CeilingNone
Temp08°C (ISA -1)
Dew Point03°C (71% RH)
AAT4.0°C
QNH1015 hPa
Density Alt2,838 ft
Elevation2,933 ft
Report Wrong Elevation
Raw Report
K2G4 192225Z AUTO 14007KT 10SM CLR 08/03 A2997 RMK AO1=

Extra information for K2G4:More info

Metar Taf Metar & Taf Last 4 Metars F.Rules Stats Wind Profile Meteogram Temp Stats Airport Information Weather charts Add Link Nearby VenuesMetar ALERT Operation Metar Decoded Social comments

AIRNAV info for K2G4